sensor_id;sensor_type;location;lat;lon;timestamp;temperature;humidity
21031;DHT22;61072;47.808;7.636;2022-09-30T03:48:00;11.70;99.90
21031;DHT22;61072;47.808;7.636;2022-09-30T03:50:28;11.80;99.90
21031;DHT22;61072;47.808;7.636;2022-09-30T03:52:56;11.70;99.90
21031;DHT22;61072;47.808;7.636;2022-09-30T03:55:24;11.70;99.90
21031;DHT22;61072;47.808;7.636;2022-09-30T03:57:52;11.70;99.90
21031;DHT22;61072;47.808;7.636;2022-09-30T04:00:20;11.70;99.90
21031;DHT22;61072;47.808;7.636;2022-09-30T04:02:46;11.70;99.90
21031;DHT22;61072;47.808;7.636;2022-09-30T04:05:13;11.70;99.90
21031;DHT22;61072;47.808;7.636;2022-09-30T04:07:40;11.70;99.90
21031;DHT22;61072;47.808;7.636;2022-09-30T04:10:07;11.80;99.90
21031;DHT22;61072;47.808;7.636;2022-09-30T04:12:34;11.70;99.90
21031;DHT22;61072;47.808;7.636;2022-09-30T04:15:00;11.70;99.90
21031;DHT22;61072;47.808;7.636;2022-09-30T04:17:27;11.70;99.90
21031;DHT22;61072;47.808;7.636;2022-09-30T04:19:54;11.70;99.90
21031;DHT22;61072;47.808;7.636;2022-09-30T04:22:21;11.80;99.90
21031;DHT22;61072;47.808;7.636;2022-09-30T04:24:52;11.80;99.90
21031;DHT22;61072;47.808;7.636;2022-09-30T04:27:18;11.70;99.90
21031;DHT22;61072;47.808;7.636;2022-09-30T04:29:45;11.70;99.90
21031;DHT22;61072;47.808;7.636;2022-09-30T04:32:12;11.80;99.90
21031;DHT22;61072;47.808;7.636;2022-09-30T04:34:38;11.80;99.90
21031;DHT22;61072;47.808;7.636;2022-09-30T04:37:05;11.70;99.90
21031;DHT22;61072;47.808;7.636;2022-09-30T04:39:36;11.80;99.90
21031;DHT22;61072;47.808;7.636;2022-09-30T04:42:03;11.80;99.90
21031;DHT22;61072;47.808;7.636;2022-09-30T04:44:30;11.80;99.90
21031;DHT22;61072;47.808;7.636;2022-09-30T04:46:56;11.80;99.90
21031;DHT22;61072;47.808;7.636;2022-09-30T04:49:23;11.70;99.90
21031;DHT22;61072;47.808;7.636;2022-09-30T04:51:50;11.70;99.90
21031;DHT22;61072;47.808;7.636;2022-09-30T04:54:17;11.70;99.90
21031;DHT22;61072;47.808;7.636;2022-09-30T04:56:44;11.70;99.90
21031;DHT22;61072;47.808;7.636;2022-09-30T04:59:11;11.60;99.90
21031;DHT22;61072;47.808;7.636;2022-09-30T05:01:38;11.60;99.90
21031;DHT22;61072;47.808;7.636;2022-09-30T05:04:05;11.50;99.90
21031;DHT22;61072;47.808;7.636;2022-09-30T05:06:33;11.40;99.90
21031;DHT22;61072;47.808;7.636;2022-09-30T05:09:00;11.40;99.90
21031;DHT22;61072;47.808;7.636;2022-09-30T05:11:27;11.40;99.90
21031;DHT22;61072;47.808;7.636;2022-09-30T05:13:54;11.30;99.90
21031;DHT22;61072;47.808;7.636;2022-09-30T05:16:21;11.40;99.90
21031;DHT22;61072;47.808;7.636;2022-09-30T05:18:48;11.30;99.90
21031;DHT22;61072;47.808;7.636;2022-09-30T05:21:17;11.30;99.90
21031;DHT22;61072;47.808;7.636;2022-09-30T05:23:46;11.30;99.90
21031;DHT22;61072;47.808;7.636;2022-09-30T05:26:13;11.30;99.90
21031;DHT22;61072;47.808;7.636;2022-09-30T05:28:41;11.30;99.90
21031;DHT22;61072;47.808;7.636;2022-09-30T05:31:08;11.30;99.90
21031;DHT22;61072;47.808;7.636;2022-09-30T05:33:35;11.30;99.90
21031;DHT22;61072;47.808;7.636;2022-09-30T05:36:05;11.40;99.90
21031;DHT22;61072;47.808;7.636;2022-09-30T05:38:32;11.40;99.90
21031;DHT22;61072;47.808;7.636;2022-09-30T05:41:07;11.40;99.90
21031;DHT22;61072;47.808;7.636;2022-09-30T05:43:36;11.40;99.90
21031;DHT22;61072;47.808;7.636;2022-09-30T05:46:03;11.50;99.90
21031;DHT22;61072;47.808;7.636;2022-09-30T05:48:30;11.50;99.90
21031;DHT22;61072;47.808;7.636;2022-09-30T05:50:58;11.50;99.90
21031;DHT22;61072;47.808;7.636;2022-09-30T05:53:27;11.50;99.90
21031;DHT22;61072;47.808;7.636;2022-09-30T05:55:54;11.50;99.90
21031;DHT22;61072;47.808;7.636;2022-09-30T05:58:21;11.50;99.90
21031;DHT22;61072;47.808;7.636;2022-09-30T06:00:48;11.50;99.90
21031;DHT22;61072;47.808;7.636;2022-09-30T06:03:16;11.50;99.90
21031;DHT22;61072;47.808;7.636;2022-09-30T06:05:43;11.50;99.90
21031;DHT22;61072;47.808;7.636;2022-09-30T06:08:13;11.60;99.90
21031;DHT22;61072;47.808;7.636;2022-09-30T06:10:42;11.50;99.90
21031;DHT22;61072;47.808;7.636;2022-09-30T06:13:10;11.50;99.90
21031;DHT22;61072;47.808;7.636;2022-09-30T06:15:37;11.50;99.90
21031;DHT22;61072;47.808;7.636;2022-09-30T06:18:04;11.60;99.90
21031;DHT22;61072;47.808;7.636;2022-09-30T06:20:31;11.50;99.90
21031;DHT22;61072;47.808;7.636;2022-09-30T06:22:59;11.50;99.90
21031;DHT22;61072;47.808;7.636;2022-09-30T06:25:27;11.50;99.90
21031;DHT22;61072;47.808;7.636;2022-09-30T06:27:54;11.40;99.90
21031;DHT22;61072;47.808;7.636;2022-09-30T06:30:22;11.40;99.90
21031;DHT22;61072;47.808;7.636;2022-09-30T06:32:48;11.40;99.90
21031;DHT22;61072;47.808;7.636;2022-09-30T06:35:15;11.40;99.90
21031;DHT22;61072;47.808;7.636;2022-09-30T06:37:43;11.40;99.90
21031;DHT22;61072;47.808;7.636;2022-09-30T06:40:10;11.30;99.90
21031;DHT22;61072;47.808;7.636;2022-09-30T06:42:37;11.40;99.90
21031;DHT22;61072;47.808;7.636;2022-09-30T06:45:04;11.40;99.90
21031;DHT22;61072;47.808;7.636;2022-09-30T06:47:31;11.40;99.90
21031;DHT22;61072;47.808;7.636;2022-09-30T06:49:58;11.40;99.90
21031;DHT22;61072;47.808;7.636;2022-09-30T06:52:25;11.40;99.90
21031;DHT22;61072;47.808;7.636;2022-09-30T06:54:52;11.40;99.90
21031;DHT22;61072;47.808;7.636;2022-09-30T06:57:23;11.50;99.90
21031;DHT22;61072;47.808;7.636;2022-09-30T06:59:52;11.50;99.90
21031;DHT22;61072;47.808;7.636;2022-09-30T07:02:20;11.50;99.90
21031;DHT22;61072;47.808;7.636;2022-09-30T07:04:47;11.50;99.90
21031;DHT22;61072;47.808;7.636;2022-09-30T07:07:14;11.60;99.90
21031;DHT22;61072;47.808;7.636;2022-09-30T07:09:41;11.60;99.90
21031;DHT22;61072;47.808;7.636;2022-09-30T07:12:09;11.50;99.90
21031;DHT22;61072;47.808;7.636;2022-09-30T07:14:35;11.50;99.90
21031;DHT22;61072;47.808;7.636;2022-09-30T07:17:04;11.40;99.90
21031;DHT22;61072;47.808;7.636;2022-09-30T07:19:31;11.30;99.90
21031;DHT22;61072;47.808;7.636;2022-09-30T07:22:00;11.40;99.90
21031;DHT22;61072;47.808;7.636;2022-09-30T07:24:47;11.40;99.90
21031;DHT22;61072;47.808;7.636;2022-09-30T07:27:13;11.50;99.90
21031;DHT22;61072;47.808;7.636;2022-09-30T07:29:40;11.50;99.90
21031;DHT22;61072;47.808;7.636;2022-09-30T07:32:27;11.60;99.90
21031;DHT22;61072;47.808;7.636;2022-09-30T07:34:54;11.60;99.90
21031;DHT22;61072;47.808;7.636;2022-09-30T07:37:20;11.60;99.90
21031;DHT22;61072;47.808;7.636;2022-09-30T07:39:49;11.60;99.90
21031;DHT22;61072;47.808;7.636;2022-09-30T07:42:17;11.60;99.90
21031;DHT22;61072;47.808;7.636;2022-09-30T07:44:49;11.60;99.90
21031;DHT22;61072;47.808;7.636;2022-09-30T07:47:18;11.60;99.90
21031;DHT22;61072;47.808;7.636;2022-09-30T07:49:46;11.50;99.90
21031;DHT22;61072;47.808;7.636;2022-09-30T07:52:13;11.60;99.90
21031;DHT22;61072;47.808;7.636;2022-09-30T07:54:41;11.60;99.90
21031;DHT22;61072;47.808;7.636;2022-09-30T07:57:13;11.60;99.90
21031;DHT22;61072;47.808;7.636;2022-09-30T07:59:40;11.60;99.90
21031;DHT22;61072;47.808;7.636;2022-09-30T08:02:12;11.60;99.90
21031;DHT22;61072;47.808;7.636;2022-09-30T08:04:40;11.70;99.90
21031;DHT22;61072;47.808;7.636;2022-09-30T08:07:10;11.70;99.90
21031;DHT22;61072;47.808;7.636;2022-09-30T08:09:37;11.60;99.90
21031;DHT22;61072;47.808;7.636;2022-09-30T08:12:04;11.70;99.90
21031;DHT22;61072;47.808;7.636;2022-09-30T08:14:31;11.80;99.90
21031;DHT22;61072;47.808;7.636;2022-09-30T08:16:57;11.80;99.90
21031;DHT22;61072;47.808;7.636;2022-09-30T08:19:30;11.90;99.90
21031;DHT22;61072;47.808;7.636;2022-09-30T08:21:59;11.90;99.90
21031;DHT22;61072;47.808;7.636;2022-09-30T08:24:26;11.90;99.90
21031;DHT22;61072;47.808;7.636;2022-09-30T08:26:54;11.90;99.90
21031;DHT22;61072;47.808;7.636;2022-09-30T08:29:21;11.80;99.90
21031;DHT22;61072;47.808;7.636;2022-09-30T08:32:07;11.70;99.90
21031;DHT22;61072;47.808;7.636;2022-09-30T08:34:34;11.60;99.90
21031;DHT22;61072;47.808;7.636;2022-09-30T08:37:02;11.60;99.90
21031;DHT22;61072;47.808;7.636;2022-09-30T08:39:34;11.60;99.90
21031;DHT22;61072;47.808;7.636;2022-09-30T08:44:50;11.60;99.90
21031;DHT22;61072;47.808;7.636;2022-09-30T08:50:07;11.80;99.90
21031;DHT22;61072;47.808;7.636;2022-09-30T08:52:43;11.80;99.90
21031;DHT22;61072;47.808;7.636;2022-09-30T08:55:22;11.80;99.90
21031;DHT22;61072;47.808;7.636;2022-09-30T08:57:51;11.90;99.90
21031;DHT22;61072;47.808;7.636;2022-09-30T09:00:19;12.10;99.90
21031;DHT22;61072;47.808;7.636;2022-09-30T09:02:53;12.10;99.90
21031;DHT22;61072;47.808;7.636;2022-09-30T09:10:44;12.30;99.90
21031;DHT22;61072;47.808;7.636;2022-09-30T09:16:17;12.40;99.90
21031;DHT22;61072;47.808;7.636;2022-09-30T09:24:02;12.60;99.90
21031;DHT22;61072;47.808;7.636;2022-09-30T09:26:34;12.70;99.90
21031;DHT22;61072;47.808;7.636;2022-09-30T09:29:17;12.60;99.90
21031;DHT22;61072;47.808;7.636;2022-09-30T09:31:46;12.60;99.90
21031;DHT22;61072;47.808;7.636;2022-09-30T09:34:14;12.70;99.90
21031;DHT22;61072;47.808;7.636;2022-09-30T09:36:54;12.80;99.90
21031;DHT22;61072;47.808;7.636;2022-09-30T09:39:44;12.90;99.90
21031;DHT22;61072;47.808;7.636;2022-09-30T09:42:20;12.90;99.90
21031;DHT22;61072;47.808;7.636;2022-09-30T09:45:03;13.00;99.90
21031;DHT22;61072;47.808;7.636;2022-09-30T09:47:34;13.20;99.90
21031;DHT22;61072;47.808;7.636;2022-09-30T09:50:02;13.20;99.90
21031;DHT22;61072;47.808;7.636;2022-09-30T09:55:36;13.30;99.90
21031;DHT22;61072;47.808;7.636;2022-09-30T09:58:10;13.30;99.90
21031;DHT22;61072;47.808;7.636;2022-09-30T10:00:40;13.40;99.90
21031;DHT22;61072;47.808;7.636;2022-09-30T10:03:21;13.50;99.90
21031;DHT22;61072;47.808;7.636;2022-09-30T10:06:00;13.60;99.90
21031;DHT22;61072;47.808;7.636;2022-09-30T10:08:29;13.80;99.90
21031;DHT22;61072;47.808;7.636;2022-09-30T10:11:06;13.80;99.90
21031;DHT22;61072;47.808;7.636;2022-09-30T10:13:42;13.80;99.90
21031;DHT22;61072;47.808;7.636;2022-09-30T10:16:30;13.90;99.90
21031;DHT22;61072;47.808;7.636;2022-09-30T10:18:58;13.80;99.90
21031;DHT22;61072;47.808;7.636;2022-09-30T10:21:27;13.70;99.90
21031;DHT22;61072;47.808;7.636;2022-09-30T10:23:55;13.70;99.90
21031;DHT22;61072;47.808;7.636;2022-09-30T10:26:25;13.60;99.90
21031;DHT22;61072;47.808;7.636;2022-09-30T10:29:00;13.70;99.90
21031;DHT22;61072;47.808;7.636;2022-09-30T10:31:30;13.70;99.90
21031;DHT22;61072;47.808;7.636;2022-09-30T10:34:17;13.80;99.90
21031;DHT22;61072;47.808;7.636;2022-09-30T10:36:49;13.80;99.90
21031;DHT22;61072;47.808;7.636;2022-09-30T10:39:25;13.90;99.90
21031;DHT22;61072;47.808;7.636;2022-09-30T10:42:25;13.90;99.90
21031;DHT22;61072;47.808;7.636;2022-09-30T10:45:04;13.80;99.90
21031;DHT22;61072;47.808;7.636;2022-09-30T10:47:32;13.70;99.90
21031;DHT22;61072;47.808;7.636;2022-09-30T10:50:07;13.90;99.90
21031;DHT22;61072;47.808;7.636;2022-09-30T10:52:45;13.80;99.90
21031;DHT22;61072;47.808;7.636;2022-09-30T10:55:29;13.90;99.90
21031;DHT22;61072;47.808;7.636;2022-09-30T10:58:19;14.00;99.90
21031;DHT22;61072;47.808;7.636;2022-09-30T11:00:47;14.10;99.90
21031;DHT22;61072;47.808;7.636;2022-09-30T11:03:19;14.10;99.90
21031;DHT22;61072;47.808;7.636;2022-09-30T11:05:50;14.00;99.90
21031;DHT22;61072;47.808;7.636;2022-09-30T11:08:40;14.00;99.90
21031;DHT22;61072;47.808;7.636;2022-09-30T11:11:17;13.90;99.90
21031;DHT22;61072;47.808;7.636;2022-09-30T11:14:20;13.90;99.90
21031;DHT22;61072;47.808;7.636;2022-09-30T11:16:48;13.90;99.90
21031;DHT22;61072;47.808;7.636;2022-09-30T11:22:42;14.00;99.90
21031;DHT22;61072;47.808;7.636;2022-09-30T11:24:49;14.00;99.90
21031;DHT22;61072;47.808;7.636;2022-09-30T11:30:26;14.10;99.90
21031;DHT22;61072;47.808;7.636;2022-09-30T11:33:32;14.10;99.90
21031;DHT22;61072;47.808;7.636;2022-09-30T11:39:23;14.10;99.90
21031;DHT22;61072;47.808;7.636;2022-09-30T11:41:56;14.20;99.90
21031;DHT22;61072;47.808;7.636;2022-09-30T11:49:41;14.10;99.90
21031;DHT22;61072;47.808;7.636;2022-09-30T11:52:21;14.10;99.90
21031;DHT22;61072;47.808;7.636;2022-09-30T11:58:03;14.10;99.90
21031;DHT22;61072;47.808;7.636;2022-09-30T12:00:57;14.00;99.90
21031;DHT22;61072;47.808;7.636;2022-09-30T12:03:37;14.00;99.90
21031;DHT22;61072;47.808;7.636;2022-09-30T12:06:30;14.10;99.90
21031;DHT22;61072;47.808;7.636;2022-09-30T12:09:13;14.10;99.90
21031;DHT22;61072;47.808;7.636;2022-09-30T12:11:49;14.20;99.90
21031;DHT22;61072;47.808;7.636;2022-09-30T12:14:24;14.30;99.90
21031;DHT22;61072;47.808;7.636;2022-09-30T12:16:51;14.30;99.90
21031;DHT22;61072;47.808;7.636;2022-09-30T12:19:33;14.30;99.90
21031;DHT22;61072;47.808;7.636;2022-09-30T12:22:11;14.20;99.90
21031;DHT22;61072;47.808;7.636;2022-09-30T12:24:42;14.20;99.90
21031;DHT22;61072;47.808;7.636;2022-09-30T12:27:20;14.20;99.90
21031;DHT22;61072;47.808;7.636;2022-09-30T12:30:03;14.20;99.90
21031;DHT22;61072;47.808;7.636;2022-09-30T12:33:14;14.20;99.90
21031;DHT22;61072;47.808;7.636;2022-09-30T12:42:04;14.50;99.90
21031;DHT22;61072;47.808;7.636;2022-09-30T12:47:50;14.70;99.90
21031;DHT22;61072;47.808;7.636;2022-09-30T12:50:19;14.90;99.90
21031;DHT22;61072;47.808;7.636;2022-09-30T12:52:47;15.00;99.90
21031;DHT22;61072;47.808;7.636;2022-09-30T12:55:27;15.20;99.90
21031;DHT22;61072;47.808;7.636;2022-09-30T12:57:59;15.20;99.90
21031;DHT22;61072;47.808;7.636;2022-09-30T13:00:32;15.30;99.90
21031;DHT22;61072;47.808;7.636;2022-09-30T13:03:16;15.50;99.90
21031;DHT22;61072;47.808;7.636;2022-09-30T13:05:50;15.70;99.90
21031;DHT22;61072;47.808;7.636;2022-09-30T13:10:59;15.70;99.90
21031;DHT22;61072;47.808;7.636;2022-09-30T13:13:30;15.80;99.90
21031;DHT22;61072;47.808;7.636;2022-09-30T13:16:00;16.00;99.90
21031;DHT22;61072;47.808;7.636;2022-09-30T13:23:51;16.10;99.90
21031;DHT22;61072;47.808;7.636;2022-09-30T13:28:52;16.20;99.90
21031;DHT22;61072;47.808;7.636;2022-09-30T13:31:21;16.20;99.90
21031;DHT22;61072;47.808;7.636;2022-09-30T13:34:04;16.20;99.90
21031;DHT22;61072;47.808;7.636;2022-09-30T13:36:58;16.30;99.90
21031;DHT22;61072;47.808;7.636;2022-09-30T13:39:47;16.30;99.90
21031;DHT22;61072;47.808;7.636;2022-09-30T13:42:26;16.40;99.90
21031;DHT22;61072;47.808;7.636;2022-09-30T13:45:15;16.40;99.90
21031;DHT22;61072;47.808;7.636;2022-09-30T13:47:54;16.50;99.90
21031;DHT22;61072;47.808;7.636;2022-09-30T13:50:30;16.50;99.90
21031;DHT22;61072;47.808;7.636;2022-09-30T13:53:06;16.50;99.90
21031;DHT22;61072;47.808;7.636;2022-09-30T13:55:41;16.50;99.90
21031;DHT22;61072;47.808;7.636;2022-09-30T13:58:34;16.60;99.90
21031;DHT22;61072;47.808;7.636;2022-09-30T14:23:14;16.40;99.90
21031;DHT22;61072;47.808;7.636;2022-09-30T14:28:40;16.40;99.90
21031;DHT22;61072;47.808;7.636;2022-09-30T14:31:15;16.40;99.90
21031;DHT22;61072;47.808;7.636;2022-09-30T14:33:46;16.40;99.90
21031;DHT22;61072;47.808;7.636;2022-09-30T14:36:19;16.40;99.90
21031;DHT22;61072;47.808;7.636;2022-09-30T14:38:53;16.40;99.90
21031;DHT22;61072;47.808;7.636;2022-09-30T14:41:22;16.30;99.90
21031;DHT22;61072;47.808;7.636;2022-09-30T14:43:57;16.30;99.90
21031;DHT22;61072;47.808;7.636;2022-09-30T14:48:58;16.10;99.90
21031;DHT22;61072;47.808;7.636;2022-09-30T14:51:36;16.10;99.90
21031;DHT22;61072;47.808;7.636;2022-09-30T14:54:03;16.00;99.90
21031;DHT22;61072;47.808;7.636;2022-09-30T14:56:34;15.90;99.90
21031;DHT22;61072;47.808;7.636;2022-09-30T14:59:32;15.80;99.90
21031;DHT22;61072;47.808;7.636;2022-09-30T15:02:01;15.90;99.90
21031;DHT22;61072;47.808;7.636;2022-09-30T15:04:34;15.80;99.90
21031;DHT22;61072;47.808;7.636;2022-09-30T15:07:03;15.70;99.90
21031;DHT22;61072;47.808;7.636;2022-09-30T15:09:33;15.70;99.90
21031;DHT22;61072;47.808;7.636;2022-09-30T15:12:13;15.80;99.90
21031;DHT22;61072;47.808;7.636;2022-09-30T15:14:46;15.80;99.90
21031;DHT22;61072;47.808;7.636;2022-09-30T15:17:18;15.80;99.90
21031;DHT22;61072;47.808;7.636;2022-09-30T15:19:46;15.80;99.90
21031;DHT22;61072;47.808;7.636;2022-09-30T15:22:17;15.80;99.90
21031;DHT22;61072;47.808;7.636;2022-09-30T15:24:45;15.80;99.90
21031;DHT22;61072;47.808;7.636;2022-09-30T15:27:33;15.80;99.90
21031;DHT22;61072;47.808;7.636;2022-09-30T15:32:41;15.80;99.90
21031;DHT22;61072;47.808;7.636;2022-09-30T15:35:14;15.80;99.90
21031;DHT22;61072;47.808;7.636;2022-09-30T15:37:42;15.70;99.90
21031;DHT22;61072;47.808;7.636;2022-09-30T15:40:15;15.80;99.90
21031;DHT22;61072;47.808;7.636;2022-09-30T15:43:06;15.70;99.90
21031;DHT22;61072;47.808;7.636;2022-09-30T15:45:46;15.70;99.90
21031;DHT22;61072;47.808;7.636;2022-09-30T15:50:49;15.70;99.90
21031;DHT22;61072;47.808;7.636;2022-09-30T15:55:53;15.70;99.90
21031;DHT22;61072;47.808;7.636;2022-09-30T15:58:37;15.70;99.90
21031;DHT22;61072;47.808;7.636;2022-09-30T16:01:19;15.70;99.90
21031;DHT22;61072;47.808;7.636;2022-09-30T16:03:58;15.70;99.90
21031;DHT22;61072;47.808;7.636;2022-09-30T16:06:31;15.60;99.90
21031;DHT22;61072;47.808;7.636;2022-09-30T16:09:13;15.60;99.90
21031;DHT22;61072;47.808;7.636;2022-09-30T16:12:07;15.60;99.90
21031;DHT22;61072;47.808;7.636;2022-09-30T16:19:56;15.50;99.90
21031;DHT22;61072;47.808;7.636;2022-09-30T16:27:37;15.30;99.90
21031;DHT22;61072;47.808;7.636;2022-09-30T16:30:05;15.30;99.90
21031;DHT22;61072;47.808;7.636;2022-09-30T16:32:36;15.10;99.90
21031;DHT22;61072;47.808;7.636;2022-09-30T16:35:04;15.00;99.90
21031;DHT22;61072;47.808;7.636;2022-09-30T16:37:31;14.90;99.90
21031;DHT22;61072;47.808;7.636;2022-09-30T16:40:05;14.80;99.90
21031;DHT22;61072;47.808;7.636;2022-09-30T16:42:35;14.80;99.90
21031;DHT22;61072;47.808;7.636;2022-09-30T16:45:02;14.60;99.90
21031;DHT22;61072;47.808;7.636;2022-09-30T16:47:29;14.50;99.90
21031;DHT22;61072;47.808;7.636;2022-09-30T16:49:56;14.40;99.90
21031;DHT22;61072;47.808;7.636;2022-09-30T16:52:24;14.30;99.90
21031;DHT22;61072;47.808;7.636;2022-09-30T16:54:51;14.20;99.90
21031;DHT22;61072;47.808;7.636;2022-09-30T16:57:18;14.20;99.90
21031;DHT22;61072;47.808;7.636;2022-09-30T16:59:44;14.00;99.90
21031;DHT22;61072;47.808;7.636;2022-09-30T17:02:13;13.90;99.90
21031;DHT22;61072;47.808;7.636;2022-09-30T17:04:40;13.90;99.90
21031;DHT22;61072;47.808;7.636;2022-09-30T17:07:10;13.70;99.90
21031;DHT22;61072;47.808;7.636;2022-09-30T17:09:37;13.70;99.90
21031;DHT22;61072;47.808;7.636;2022-09-30T17:12:04;13.60;99.90
21031;DHT22;61072;47.808;7.636;2022-09-30T17:14:31;13.50;99.90
21031;DHT22;61072;47.808;7.636;2022-09-30T17:16:58;13.40;99.90
21031;DHT22;61072;47.808;7.636;2022-09-30T17:19:25;13.30;99.90
21031;DHT22;61072;47.808;7.636;2022-09-30T17:21:55;13.20;99.90
21031;DHT22;61072;47.808;7.636;2022-09-30T17:24:22;13.10;99.90
21031;DHT22;61072;47.808;7.636;2022-09-30T17:26:48;13.00;99.90
21031;DHT22;61072;47.808;7.636;2022-09-30T17:29:16;13.00;99.90
21031;DHT22;61072;47.808;7.636;2022-09-30T17:31:58;12.90;99.90
21031;DHT22;61072;47.808;7.636;2022-09-30T17:34:24;12.80;99.90
21031;DHT22;61072;47.808;7.636;2022-09-30T17:36:53;12.80;99.90
21031;DHT22;61072;47.808;7.636;2022-09-30T17:39:21;12.80;99.90
21031;DHT22;61072;47.808;7.636;2022-09-30T17:41:48;12.70;99.90
21031;DHT22;61072;47.808;7.636;2022-09-30T17:44:33;12.70;99.90
21031;DHT22;61072;47.808;7.636;2022-09-30T17:47:00;12.60;99.90
21031;DHT22;61072;47.808;7.636;2022-09-30T17:49:31;12.60;99.90
21031;DHT22;61072;47.808;7.636;2022-09-30T17:51:59;12.40;99.90
21031;DHT22;61072;47.808;7.636;2022-09-30T17:54:26;12.40;99.90
21031;DHT22;61072;47.808;7.636;2022-09-30T17:56:54;12.40;99.90
21031;DHT22;61072;47.808;7.636;2022-09-30T17:59:21;12.40;99.90
21031;DHT22;61072;47.808;7.636;2022-09-30T18:01:48;12.30;99.90
21031;DHT22;61072;47.808;7.636;2022-09-30T18:04:16;12.30;99.90
21031;DHT22;61072;47.808;7.636;2022-09-30T18:06:44;12.30;99.90
21031;DHT22;61072;47.808;7.636;2022-09-30T18:09:11;12.20;99.90
21031;DHT22;61072;47.808;7.636;2022-09-30T18:11:38;12.20;99.90
21031;DHT22;61072;47.808;7.636;2022-09-30T18:14:10;12.20;99.90
21031;DHT22;61072;47.808;7.636;2022-09-30T18:16:38;12.20;99.90
21031;DHT22;61072;47.808;7.636;2022-09-30T18:19:05;12.10;99.90
21031;DHT22;61072;47.808;7.636;2022-09-30T18:21:35;12.10;99.90
21031;DHT22;61072;47.808;7.636;2022-09-30T18:24:03;12.10;99.90
21031;DHT22;61072;47.808;7.636;2022-09-30T18:26:31;12.00;99.90
21031;DHT22;61072;47.808;7.636;2022-09-30T18:29:01;12.00;99.90
21031;DHT22;61072;47.808;7.636;2022-09-30T18:31:27;12.00;99.90
21031;DHT22;61072;47.808;7.636;2022-09-30T18:33:57;11.90;99.90
21031;DHT22;61072;47.808;7.636;2022-09-30T18:36:25;11.90;99.90
21031;DHT22;61072;47.808;7.636;2022-09-30T18:38:54;11.90;99.90
21031;DHT22;61072;47.808;7.636;2022-09-30T18:41:24;11.80;99.90
21031;DHT22;61072;47.808;7.636;2022-09-30T18:43:51;11.80;99.90
21031;DHT22;61072;47.808;7.636;2022-09-30T18:46:22;11.80;99.90
21031;DHT22;61072;47.808;7.636;2022-09-30T18:48:49;11.80;99.90
21031;DHT22;61072;47.808;7.636;2022-09-30T18:51:16;11.70;99.90
21031;DHT22;61072;47.808;7.636;2022-09-30T18:53:44;11.70;99.90
21031;DHT22;61072;47.808;7.636;2022-09-30T18:56:10;11.60;99.90
21031;DHT22;61072;47.808;7.636;2022-09-30T18:58:37;11.60;99.90
21031;DHT22;61072;47.808;7.636;2022-09-30T19:01:05;11.60;99.90
21031;DHT22;61072;47.808;7.636;2022-09-30T19:03:33;11.50;99.90
21031;DHT22;61072;47.808;7.636;2022-09-30T19:06:06;11.50;99.90
21031;DHT22;61072;47.808;7.636;2022-09-30T19:08:33;11.50;99.90
21031;DHT22;61072;47.808;7.636;2022-09-30T19:11:05;11.50;99.90
21031;DHT22;61072;47.808;7.636;2022-09-30T19:13:38;11.40;99.90
21031;DHT22;61072;47.808;7.636;2022-09-30T19:16:05;11.40;99.90
21031;DHT22;61072;47.808;7.636;2022-09-30T19:18:33;11.40;99.90
21031;DHT22;61072;47.808;7.636;2022-09-30T19:21:07;11.40;99.90
21031;DHT22;61072;47.808;7.636;2022-09-30T19:23:35;11.40;99.90
21031;DHT22;61072;47.808;7.636;2022-09-30T19:26:03;11.30;99.90
21031;DHT22;61072;47.808;7.636;2022-09-30T19:28:30;11.30;99.90
21031;DHT22;61072;47.808;7.636;2022-09-30T19:30:57;11.20;99.90
21031;DHT22;61072;47.808;7.636;2022-09-30T19:33:30;11.30;99.90
21031;DHT22;61072;47.808;7.636;2022-09-30T19:36:06;11.30;99.90
21031;DHT22;61072;47.808;7.636;2022-09-30T19:38:41;11.30;99.90
21031;DHT22;61072;47.808;7.636;2022-09-30T19:41:09;11.20;99.90
21031;DHT22;61072;47.808;7.636;2022-09-30T19:43:36;11.20;99.90
21031;DHT22;61072;47.808;7.636;2022-09-30T19:46:06;11.20;99.90
21031;DHT22;61072;47.808;7.636;2022-09-30T19:48:34;11.20;99.90
21031;DHT22;61072;47.808;7.636;2022-09-30T19:51:07;11.20;99.90
21031;DHT22;61072;47.808;7.636;2022-09-30T19:53:36;11.10;99.90
21031;DHT22;61072;47.808;7.636;2022-09-30T19:56:16;11.10;99.90
21031;DHT22;61072;47.808;7.636;2022-09-30T19:58:46;11.10;99.90
21031;DHT22;61072;47.808;7.636;2022-09-30T20:01:14;11.10;99.90
21031;DHT22;61072;47.808;7.636;2022-09-30T20:03:41;11.10;99.90
21031;DHT22;61072;47.808;7.636;2022-09-30T20:06:10;11.10;99.90
21031;DHT22;61072;47.808;7.636;2022-09-30T20:08:42;11.10;99.90
21031;DHT22;61072;47.808;7.636;2022-09-30T20:11:11;11.10;99.90
